Time;durP1;ratioP1;P1;durP2;ratioP2;P2;SDS_P1;SDS_P2;PMS_P1;PMS_P2;Temp;Humidity;BMP_temperature;BMP_pressure;BME280_temperature;BME280_humidity;BME280_pressure;Samples;Min_cycle;Max_cycle;Signal;HPM_P1;HPM_P2
2023/01/21 00:02:25;;;;;;;9.50;8.57;;;-2.30;99.90;;;;;;5051840;28;20186;-64
2023/01/21 00:04:50;;;;;;;8.83;8.33;;;-2.40;99.90;;;;;;5067012;28;20253;-64
2023/01/21 00:07:16;;;;;;;25.67;10.30;;;-2.40;99.90;;;;;;5053397;28;20621;-64
2023/01/21 00:09:41;;;;;;;9.33;8.47;;;-2.30;99.90;;;;;;5056928;28;20174;-64
2023/01/21 00:12:07;;;;;;;11.47;10.23;;;-2.30;99.90;;;;;;5051579;28;20671;-65
2023/01/21 00:14:33;;;;;;;7.97;7.43;;;-2.30;99.90;;;;;;5064721;28;20232;-64
2023/01/21 00:16:58;;;;;;;9.60;9.07;;;-2.30;99.90;;;;;;5053178;28;20170;-64
2023/01/21 00:19:24;;;;;;;9.47;8.67;;;-2.40;99.90;;;;;;5059546;28;20281;-64
2023/01/21 00:21:50;;;;;;;9.07;8.43;;;-2.30;99.90;;;;;;5051502;28;20166;-64
2023/01/21 00:24:16;;;;;;;9.37;8.43;;;-2.30;99.90;;;;;;5058995;28;20624;-64
2023/01/21 00:26:43;;;;;;;8.50;7.87;;;-2.30;99.90;;;;;;5071540;28;20173;-64
2023/01/21 00:29:10;;;;;;;9.13;8.43;;;-2.20;99.90;;;;;;5044501;28;20316;-63
2023/01/21 00:31:35;;;;;;;9.67;8.43;;;-2.20;99.90;;;;;;5051502;28;20252;-64
2023/01/21 00:34:01;;;;;;;9.40;8.80;;;-2.10;99.90;;;;;;5058407;28;20325;-64
2023/01/21 00:36:28;;;;;;;8.53;8.03;;;-2.10;99.90;;;;;;5071352;28;20178;-64
2023/01/21 00:38:55;;;;;;;10.07;9.27;;;-2.10;99.90;;;;;;5064905;28;20257;-64
2023/01/21 00:41:23;;;;;;;9.03;8.47;;;-2.10;99.90;;;;;;5051024;28;20572;-64
2023/01/21 00:43:48;;;;;;;10.77;9.90;;;-2.00;99.90;;;;;;5037045;28;20245;-65
2023/01/21 00:46:14;;;;;;;9.23;8.33;;;-2.10;99.90;;;;;;5071132;28;20271;-64
2023/01/21 00:48:40;;;;;;;9.57;9.07;;;-2.10;99.90;;;;;;5055515;28;20220;-64
2023/01/21 00:51:05;;;;;;;9.40;8.90;;;-2.20;99.90;;;;;;5050499;28;20191;-64
2023/01/21 00:53:34;;;;;;;8.90;8.40;;;-2.10;99.90;;;;;;5064620;28;20598;-63
2023/01/21 00:56:05;;;;;;;11.30;9.40;;;-2.30;99.90;;;;;;5053824;28;20270;-64
2023/01/21 00:58:31;;;;;;;9.20;8.60;;;-2.30;99.90;;;;;;5063779;28;20170;-64
2023/01/21 01:01:05;;;;;;;8.33;7.93;;;-2.30;99.90;;;;;;5070415;28;20182;-63
2023/01/21 01:03:31;;;;;;;10.43;9.60;;;-2.30;99.90;;;;;;5057556;28;20729;-64
2023/01/21 01:06:05;;;;;;;10.30;9.40;;;-2.20;99.90;;;;;;5050772;28;20175;-64
2023/01/21 01:08:31;;;;;;;9.57;8.77;;;-2.30;99.90;;;;;;5063369;28;20185;-64
2023/01/21 01:10:57;;;;;;;9.23;8.53;;;-2.30;99.90;;;;;;5070406;28;20690;-64
2023/01/21 01:13:22;;;;;;;8.43;7.93;;;-2.30;99.90;;;;;;5059803;28;20201;-64
2023/01/21 01:15:51;;;;;;;8.73;8.03;;;-2.30;99.90;;;;;;5050925;28;20182;-64
2023/01/21 01:18:17;;;;;;;8.97;8.40;;;-2.20;99.90;;;;;;5061757;28;20192;-64
2023/01/21 01:20:43;;;;;;;8.17;7.77;;;-2.20;99.90;;;;;;5074533;28;20171;-63
2023/01/21 01:23:09;;;;;;;8.80;8.30;;;-2.20;99.90;;;;;;5065470;28;20234;-64
2023/01/21 01:25:36;;;;;;;8.00;7.70;;;-2.20;99.90;;;;;;5054666;28;20228;-64
2023/01/21 01:28:03;;;;;;;10.30;9.63;;;-2.20;99.90;;;;;;5059620;28;20556;-64
2023/01/21 01:30:29;;;;;;;9.03;8.63;;;-2.20;99.90;;;;;;5074573;28;20174;-63
2023/01/21 01:32:55;;;;;;;9.53;8.87;;;-2.20;99.90;;;;;;5073730;28;20205;-64
2023/01/21 01:35:20;;;;;;;8.93;8.50;;;-2.20;99.90;;;;;;5074835;28;20181;-64
2023/01/21 01:37:46;;;;;;;8.57;7.97;;;-2.20;99.90;;;;;;5070267;28;20186;-64
2023/01/21 01:40:12;;;;;;;8.73;8.33;;;-2.20;99.90;;;;;;5054479;28;20163;-64
2023/01/21 01:42:37;;;;;;;8.57;8.17;;;-2.20;99.90;;;;;;5057489;28;20229;-64
2023/01/21 01:45:11;;;;;;;10.07;9.13;;;-2.20;99.90;;;;;;5059998;23;20230;-64
2023/01/21 01:47:46;;;;;;;8.17;7.77;;;-2.20;99.90;;;;;;5036442;28;20221;-64
2023/01/21 01:50:16;;;;;;;10.67;9.77;;;-2.20;99.90;;;;;;5054268;28;20650;-64
2023/01/21 01:52:43;;;;;;;9.67;9.17;;;-2.20;99.90;;;;;;5051378;28;20652;-64
2023/01/21 01:55:11;;;;;;;8.47;7.97;;;-2.20;99.90;;;;;;5051902;28;20628;-64
2023/01/21 01:57:42;;;;;;;9.47;8.90;;;-2.20;99.90;;;;;;5054736;28;20194;-64
2023/01/21 02:00:10;;;;;;;9.00;8.50;;;-2.20;99.90;;;;;;5063468;28;20175;-64
2023/01/21 02:02:41;;;;;;;10.53;9.83;;;-2.20;99.90;;;;;;5054123;28;20174;-64
2023/01/21 02:05:09;;;;;;;9.03;8.50;;;-2.20;99.90;;;;;;5053816;28;20186;-63
2023/01/21 02:07:38;;;;;;;9.77;8.77;;;-2.30;99.90;;;;;;5054310;28;20173;-64
2023/01/21 02:10:12;;;;;;;10.33;9.67;;;-2.30;99.90;;;;;;5053442;28;20541;-63
2023/01/21 02:12:41;;;;;;;8.83;8.30;;;-2.30;99.90;;;;;;5054122;28;20207;-64
2023/01/21 02:15:08;;;;;;;8.70;8.20;;;-2.40;99.90;;;;;;5073519;28;20272;-64
2023/01/21 02:18:00;;;;;;;8.87;8.37;;;-2.40;99.90;;;;;;5073717;28;20311;-64
2023/01/21 02:20:47;;;;;;;9.73;8.87;;;-2.50;99.90;;;;;;5073431;28;20174;-63
2023/01/21 02:23:21;;;;;;;10.30;8.93;;;-2.90;99.90;;;;;;5068266;28;20167;-64
2023/01/21 02:26:23;;;;;;;8.97;8.30;;;-2.70;99.90;;;;;;5053445;28;20173;-64
2023/01/21 02:29:26;;;;;;;8.40;8.00;;;-2.60;99.90;;;;;;5052690;28;20174;-64
2023/01/21 02:32:13;;;;;;;9.30;8.73;;;-2.70;99.90;;;;;;5051677;28;20255;-63
2023/01/21 02:34:51;;;;;;;8.60;8.10;;;-2.70;99.90;;;;;;5068816;28;20271;-64
2023/01/21 02:37:41;;;;;;;8.13;7.73;;;-2.80;99.90;;;;;;5060118;28;20265;-63
2023/01/21 02:40:17;;;;;;;7.93;7.53;;;-2.80;99.90;;;;;;5072082;28;20186;-63
2023/01/21 02:42:53;;;;;;;10.17;9.23;;;-2.90;99.90;;;;;;5073101;28;20199;-64
2023/01/21 02:45:46;;;;;;;8.60;8.03;;;-2.90;99.90;;;;;;5073059;28;20289;-63
2023/01/21 02:48:46;;;;;;;8.70;8.10;;;-2.90;99.90;;;;;;5069893;28;20186;-64
2023/01/21 02:51:12;;;;;;;9.57;8.63;;;-2.90;99.90;;;;;;5041680;28;20620;-64
2023/01/21 02:53:38;;;;;;;9.13;8.47;;;-3.00;99.90;;;;;;5058622;28;20186;-64
2023/01/21 02:56:17;;;;;;;9.73;8.97;;;-3.00;99.90;;;;;;5072855;28;20174;-64
2023/01/21 02:58:47;;;;;;;8.87;8.20;;;-3.00;99.90;;;;;;5066495;28;20244;-64
2023/01/21 03:01:46;;;;;;;9.37;8.53;;;-3.10;99.90;;;;;;5052472;28;20193;-64
2023/01/21 03:04:42;;;;;;;10.30;8.10;;;-3.20;99.90;;;;;;5055903;28;20268;-63
2023/01/21 03:07:19;;;;;;;9.53;8.97;;;-3.20;99.90;;;;;;5052536;28;20171;-64
2023/01/21 03:09:45;;;;;;;9.30;8.77;;;-3.20;99.90;;;;;;5052476;28;20190;-64
2023/01/21 03:12:25;;;;;;;8.97;8.17;;;-3.20;99.90;;;;;;5052825;28;20194;-64
2023/01/21 03:18:11;;;;;;;8.80;8.20;;;-3.20;99.90;;;;;;5052476;28;20262;-64
2023/01/21 03:20:42;;;;;;;8.40;7.90;;;-3.50;99.90;;;;;;5032403;28;20262;-64
2023/01/21 03:23:13;;;;;;;8.87;8.23;;;-3.60;99.90;;;;;;5032771;28;20178;-63
2023/01/21 03:25:39;;;;;;;17.30;8.93;;;-3.40;99.90;;;;;;5072421;28;20223;-64
2023/01/21 03:28:09;;;;;;;10.37;9.77;;;-3.40;99.90;;;;;;5072315;28;20174;-64
2023/01/21 03:30:39;;;;;;;8.23;7.83;;;-2.90;99.90;;;;;;5052361;28;20573;-64
2023/01/21 03:33:06;;;;;;;7.43;7.13;;;-3.30;99.90;;;;;;5051928;28;20206;-64
2023/01/21 03:35:37;;;;;;;8.77;8.37;;;-3.30;99.90;;;;;;5052790;28;20175;-65
2023/01/21 03:38:18;;;;;;;9.03;8.43;;;-3.20;99.90;;;;;;5049357;28;20171;-64
2023/01/21 03:40:52;;;;;;;7.53;7.10;;;-3.10;99.90;;;;;;5070392;28;20288;-64
2023/01/21 03:43:18;;;;;;;7.80;7.50;;;-2.90;99.90;;;;;;5071557;28;20166;-64
2023/01/21 03:46:06;;;;;;;8.37;7.80;;;-3.00;99.90;;;;;;5071962;28;20259;-64
2023/01/21 03:48:54;;;;;;;8.97;8.43;;;-2.90;99.90;;;;;;5070260;28;20593;-64
2023/01/21 03:51:28;;;;;;;8.83;8.23;;;-2.80;99.90;;;;;;5051815;28;20668;-64
2023/01/21 03:53:58;;;;;;;7.83;7.40;;;-2.70;99.90;;;;;;5052820;28;20623;-64
2023/01/21 03:56:25;;;;;;;10.13;9.23;;;-2.60;99.90;;;;;;5062908;28;20198;-65
2023/01/21 03:58:50;;;;;;;10.03;9.33;;;-2.60;99.90;;;;;;5051617;28;20171;-65
2023/01/21 04:01:16;;;;;;;10.33;9.40;;;-2.70;99.90;;;;;;5051420;28;20197;-65
2023/01/21 04:03:42;;;;;;;8.87;8.40;;;-2.70;99.90;;;;;;5053539;28;20366;-65
2023/01/21 04:06:16;;;;;;;8.87;8.33;;;-2.70;99.90;;;;;;5071636;28;20178;-65
2023/01/21 04:08:42;;;;;;;8.97;8.27;;;-2.70;99.90;;;;;;5067645;28;20632;-65
2023/01/21 04:11:07;;;;;;;9.53;8.63;;;-2.70;99.90;;;;;;5051183;28;20225;-65
2023/01/21 04:13:33;;;;;;;9.13;8.63;;;-2.70;99.90;;;;;;5051539;28;20232;-64
2023/01/21 04:15:59;;;;;;;10.27;9.50;;;-2.70;99.90;;;;;;5051430;28;20258;-64
2023/01/21 04:18:24;;;;;;;10.20;8.73;;;-2.70;99.90;;;;;;5051282;28;20595;-65
2023/01/21 04:20:50;;;;;;;9.40;8.90;;;-2.80;99.90;;;;;;5069117;28;20239;-65
2023/01/21 04:23:15;;;;;;;8.43;8.03;;;-2.80;99.90;;;;;;5059582;28;20190;-64
2023/01/21 04:25:41;;;;;;;8.10;7.67;;;-2.90;99.90;;;;;;5059737;28;20666;-64
2023/01/21 04:28:06;;;;;;;8.77;8.30;;;-2.90;99.90;;;;;;5051267;28;20273;-65
2023/01/21 04:30:32;;;;;;;8.47;7.97;;;-2.80;99.90;;;;;;5066344;28;20189;-65
2023/01/21 04:32:58;;;;;;;9.97;9.27;;;-2.90;99.90;;;;;;5071057;28;20198;-65
2023/01/21 04:35:23;;;;;;;8.70;8.17;;;-3.00;99.90;;;;;;5070786;28;20178;-64
2023/01/21 04:37:49;;;;;;;8.57;7.73;;;-3.00;99.90;;;;;;5070973;28;20626;-65
2023/01/21 04:40:15;;;;;;;10.37;9.63;;;-3.10;99.90;;;;;;5058532;28;20251;-65
2023/01/21 04:42:43;;;;;;;8.03;7.63;;;-3.00;99.90;;;;;;5048836;28;20194;-65
2023/01/21 04:45:09;;;;;;;9.43;8.67;;;-3.10;99.90;;;;;;5050948;28;20645;-65
2023/01/21 04:47:38;;;;;;;9.97;9.47;;;-3.10;99.90;;;;;;5067124;28;20186;-65
2023/01/21 04:50:04;;;;;;;9.37;8.87;;;-3.10;99.90;;;;;;5060013;28;20190;-65
2023/01/21 04:52:30;;;;;;;11.10;10.27;;;-3.10;99.90;;;;;;5050704;28;20619;-65
2023/01/21 04:54:56;;;;;;;9.07;8.47;;;-3.20;99.90;;;;;;5059394;28;20194;-64
2023/01/21 04:57:21;;;;;;;9.03;8.20;;;-3.20;99.90;;;;;;5070808;28;20193;-65
2023/01/21 04:59:47;;;;;;;9.10;8.23;;;-3.30;99.90;;;;;;5063344;28;20547;-65
2023/01/21 05:02:13;;;;;;;8.83;8.37;;;-3.20;99.90;;;;;;5050874;28;20266;-64
2023/01/21 05:04:38;;;;;;;8.70;8.27;;;-3.20;99.90;;;;;;5056789;28;20239;-65
2023/01/21 05:07:04;;;;;;;10.60;9.90;;;-3.30;99.90;;;;;;5070787;28;20193;-65
2023/01/21 05:09:30;;;;;;;9.70;9.00;;;-3.30;99.90;;;;;;5069909;28;20204;-65
2023/01/21 05:11:55;;;;;;;9.30;8.80;;;-3.30;99.90;;;;;;5070496;28;20198;-65
2023/01/21 05:14:21;;;;;;;9.33;8.90;;;-3.30;99.90;;;;;;5061919;28;20206;-65
2023/01/21 05:16:46;;;;;;;9.93;9.17;;;-3.30;99.90;;;;;;5070635;28;20582;-65
2023/01/21 05:19:12;;;;;;;17.33;10.37;;;-3.30;99.90;;;;;;5069313;28;20175;-65
2023/01/21 05:21:37;;;;;;;10.13;9.37;;;-3.30;99.90;;;;;;5050831;28;20244;-65
2023/01/21 05:24:03;;;;;;;14.63;8.63;;;-3.40;99.90;;;;;;5050720;28;20213;-65
2023/01/21 05:26:29;;;;;;;8.73;8.03;;;-3.40;99.90;;;;;;5070695;28;20227;-64
2023/01/21 05:28:54;;;;;;;7.97;7.57;;;-3.50;99.90;;;;;;5069841;28;20257;-65
2023/01/21 05:31:20;;;;;;;10.57;9.60;;;-3.40;99.90;;;;;;5069688;28;20692;-65
2023/01/21 05:33:46;;;;;;;8.87;8.47;;;-3.40;99.90;;;;;;5070840;28;20190;-65
2023/01/21 05:36:12;;;;;;;8.37;7.87;;;-3.30;99.90;;;;;;5070163;28;20244;-65
2023/01/21 05:38:38;;;;;;;9.33;8.80;;;-3.30;99.90;;;;;;5070697;28;20217;-65
2023/01/21 05:41:04;;;;;;;8.80;8.20;;;-3.30;99.90;;;;;;5069268;28;20186;-64
2023/01/21 05:43:29;;;;;;;9.60;8.63;;;-3.20;99.90;;;;;;5070570;28;20206;-65
2023/01/21 05:45:55;;;;;;;9.03;8.43;;;-3.10;99.90;;;;;;5054334;28;20178;-64
2023/01/21 05:48:21;;;;;;;7.63;7.27;;;-3.00;99.90;;;;;;5054439;28;20656;-65
2023/01/21 05:50:48;;;;;;;8.50;8.03;;;-3.20;99.90;;;;;;5050285;28;20167;-65
2023/01/21 05:53:17;;;;;;;8.40;8.03;;;-3.10;99.90;;;;;;5058294;28;20213;-65
2023/01/21 05:55:43;;;;;;;10.70;9.63;;;-3.20;99.90;;;;;;5070670;28;20174;-64
2023/01/21 05:58:08;;;;;;;7.87;7.53;;;-3.20;99.90;;;;;;5069775;28;20584;-64
2023/01/21 06:00:34;;;;;;;9.83;9.30;;;-3.30;99.90;;;;;;5070336;28;20640;-64
2023/01/21 06:03:02;;;;;;;9.40;8.70;;;-3.30;99.90;;;;;;5069917;28;20190;-65
2023/01/21 06:05:28;;;;;;;10.30;9.80;;;-3.30;99.90;;;;;;5073449;28;20591;-65
2023/01/21 06:07:54;;;;;;;9.23;8.53;;;-3.40;99.90;;;;;;5073501;28;20186;-65
2023/01/21 06:10:20;;;;;;;8.60;8.20;;;-3.40;99.90;;;;;;5073713;28;20741;-65
2023/01/21 06:12:50;;;;;;;10.57;9.53;;;-3.40;99.90;;;;;;5070253;28;20206;-64
2023/01/21 06:15:15;;;;;;;8.70;8.10;;;-3.30;99.90;;;;;;5053728;28;20256;-65
2023/01/21 06:17:41;;;;;;;9.53;9.03;;;-3.30;99.90;;;;;;5055997;28;20514;-65
2023/01/21 06:20:09;;;;;;;10.27;9.13;;;-3.30;99.90;;;;;;5053212;28;20179;-65
2023/01/21 06:22:34;;;;;;;9.10;8.20;;;-3.20;99.90;;;;;;5053807;28;20499;-65
2023/01/21 06:25:00;;;;;;;8.80;8.10;;;-3.30;99.90;;;;;;5053432;28;20263;-65
2023/01/21 06:27:25;;;;;;;9.37;8.87;;;-3.20;99.90;;;;;;5053542;28;20556;-65
2023/01/21 06:29:51;;;;;;;11.40;9.60;;;-3.20;99.90;;;;;;5053137;28;20564;-65
2023/01/21 06:32:17;;;;;;;8.10;7.70;;;-3.30;99.90;;;;;;5052048;28;20206;-65
2023/01/21 06:34:42;;;;;;;9.43;8.83;;;-3.30;99.90;;;;;;5070674;28;20202;-65
2023/01/21 06:37:08;;;;;;;8.90;8.23;;;-3.30;99.90;;;;;;5072564;28;20170;-65
2023/01/21 06:39:33;;;;;;;8.77;8.37;;;-3.30;99.90;;;;;;5057016;28;20175;-65
2023/01/21 06:41:59;;;;;;;12.63;11.23;;;-3.40;99.90;;;;;;5053203;28;20171;-64
2023/01/21 06:44:24;;;;;;;10.67;9.50;;;-3.50;99.90;;;;;;5067940;28;20297;-64
2023/01/21 06:46:50;;;;;;;11.17;10.23;;;-3.70;99.90;;;;;;5073092;28;20193;-65
2023/01/21 06:49:16;;;;;;;7.93;7.47;;;-3.70;99.90;;;;;;5059741;28;20182;-65
2023/01/21 06:51:42;;;;;;;15.27;9.07;;;-3.70;99.90;;;;;;5051033;28;20316;-65
2023/01/21 06:54:09;;;;;;;10.53;9.57;;;-3.70;99.90;;;;;;5053425;28;20210;-64
2023/01/21 06:56:35;;;;;;;9.60;9.03;;;-3.60;99.90;;;;;;5053141;28;20175;-65
2023/01/21 06:59:01;;;;;;;11.73;10.57;;;-3.70;99.90;;;;;;5051744;28;20240;-64
2023/01/21 07:01:27;;;;;;;9.43;8.83;;;-3.70;99.90;;;;;;5060269;28;20182;-64
2023/01/21 07:03:53;;;;;;;29.07;18.30;;;-3.70;99.90;;;;;;5053948;28;20217;-65
2023/01/21 07:06:20;;;;;;;13.63;12.67;;;-3.70;99.90;;;;;;5058917;28;20368;-65
2023/01/21 07:08:46;;;;;;;11.57;10.87;;;-3.70;99.90;;;;;;5058720;28;20179;-65
2023/01/21 07:11:12;;;;;;;12.10;10.83;;;-3.60;99.90;;;;;;5052368;28;20175;-65
2023/01/21 07:13:37;;;;;;;9.90;9.43;;;-3.50;99.90;;;;;;5052765;28;20656;-65
2023/01/21 07:16:03;;;;;;;8.77;8.27;;;-3.50;99.90;;;;;;5067954;28;20261;-65
2023/01/21 07:18:29;;;;;;;10.10;9.37;;;-3.40;99.90;;;;;;5052753;28;20174;-65
2023/01/21 07:20:56;;;;;;;10.20;9.30;;;-3.30;99.90;;;;;;5052375;28;20175;-65
2023/01/21 07:23:21;;;;;;;9.60;9.00;;;-3.20;99.90;;;;;;5052419;28;20221;-65
2023/01/21 07:25:47;;;;;;;9.73;8.83;;;-3.30;99.90;;;;;;5058090;28;20190;-65
2023/01/21 07:28:13;;;;;;;8.37;7.90;;;-3.30;99.90;;;;;;5072660;28;20174;-65
2023/01/21 07:30:38;;;;;;;9.70;8.73;;;-3.20;99.90;;;;;;5069935;28;20187;-64
2023/01/21 07:33:05;;;;;;;10.73;10.07;;;-3.30;99.90;;;;;;5072147;28;20201;-64
2023/01/21 07:35:31;;;;;;;8.57;8.17;;;-3.20;99.90;;;;;;5055710;28;20186;-65
2023/01/21 07:37:56;;;;;;;8.70;8.07;;;-3.10;99.90;;;;;;5067234;28;20595;-65
2023/01/21 07:40:22;;;;;;;10.37;9.40;;;-3.10;99.90;;;;;;5059049;28;20232;-64
2023/01/21 07:42:51;;;;;;;9.87;8.73;;;-3.00;99.90;;;;;;5071124;28;20639;-65
2023/01/21 07:45:17;;;;;;;10.13;9.47;;;-3.00;99.90;;;;;;5066459;28;20206;-65
2023/01/21 07:47:43;;;;;;;16.97;9.97;;;-3.10;99.90;;;;;;5060898;28;20186;-65
2023/01/21 07:50:09;;;;;;;10.60;9.10;;;-3.10;99.90;;;;;;5063061;28;20192;-64
2023/01/21 07:52:35;;;;;;;10.50;9.57;;;-3.10;99.90;;;;;;5052184;28;20206;-65
2023/01/21 07:55:00;;;;;;;9.77;9.07;;;-3.10;99.90;;;;;;5052887;28;20537;-65
2023/01/21 07:57:26;;;;;;;9.33;8.57;;;-3.10;99.90;;;;;;5064002;28;20217;-65
2023/01/21 07:59:52;;;;;;;10.07;9.27;;;-3.10;99.90;;;;;;5051442;28;20664;-65
2023/01/21 08:02:18;;;;;;;10.30;9.30;;;-3.00;99.90;;;;;;5052091;28;20620;-65
2023/01/21 08:04:43;;;;;;;10.43;9.73;;;-3.10;99.90;;;;;;5051713;28;20572;-65
2023/01/21 08:07:09;;;;;;;10.47;9.47;;;-3.00;99.90;;;;;;5051781;28;20174;-65
2023/01/21 08:09:38;;;;;;;10.50;9.63;;;-2.90;99.90;;;;;;5051434;28;20254;-65
2023/01/21 08:12:05;;;;;;;10.83;9.93;;;-2.90;99.90;;;;;;5051451;28;20694;-65
2023/01/21 08:14:31;;;;;;;10.43;9.63;;;-2.90;99.90;;;;;;5051373;28;20195;-65
2023/01/21 08:16:57;;;;;;;10.57;9.80;;;-2.80;99.90;;;;;;5051410;28;20171;-65
2023/01/21 08:19:23;;;;;;;10.77;9.40;;;-2.70;99.90;;;;;;5051183;28;20575;-65
2023/01/21 08:21:49;;;;;;;11.17;10.30;;;-2.60;99.90;;;;;;5051619;28;20183;-64
2023/01/21 08:24:14;;;;;;;10.07;9.07;;;-2.50;99.90;;;;;;5051460;28;20317;-65
2023/01/21 08:26:40;;;;;;;9.60;8.90;;;-2.50;99.90;;;;;;5050839;28;20220;-65
2023/01/21 08:29:05;;;;;;;14.53;9.80;;;-2.40;99.90;;;;;;5051273;28;20222;-65
2023/01/21 08:31:31;;;;;;;9.27;8.77;;;-2.30;99.90;;;;;;5050972;28;20360;-65
2023/01/21 08:33:57;;;;;;;10.50;9.77;;;-2.20;99.90;;;;;;5056958;28;20626;-64
2023/01/21 08:36:23;;;;;;;10.00;9.33;;;-2.10;99.90;;;;;;5071034;28;20269;-65
2023/01/21 08:38:52;;;;;;;11.27;10.10;;;-2.00;99.90;;;;;;5068557;28;20262;-64
2023/01/21 08:41:18;;;;;;;10.37;9.37;;;-1.70;99.90;;;;;;5064426;28;20198;-64
2023/01/21 08:43:44;;;;;;;16.90;8.37;;;-1.50;99.90;;;;;;5060020;28;20241;-65
2023/01/21 08:46:09;;;;;;;9.63;8.93;;;-1.00;99.90;;;;;;5071108;28;20539;-65
2023/01/21 08:48:37;;;;;;;10.07;9.27;;;-0.70;99.90;;;;;;5064593;28;20261;-65
2023/01/21 08:51:04;;;;;;;10.40;9.43;;;-0.30;99.90;;;;;;5050540;28;20182;-63
2023/01/21 08:53:29;;;;;;;13.33;10.60;;;0.00;99.90;;;;;;5070765;28;20198;-64
2023/01/21 08:56:00;;;;;;;17.77;12.13;;;0.30;99.90;;;;;;5066689;28;20651;-64
2023/01/21 08:58:26;;;;;;;18.60;12.17;;;0.60;99.90;;;;;;5054490;28;20261;-64
2023/01/21 09:00:52;;;;;;;13.47;12.03;;;0.80;99.90;;;;;;5065486;28;20203;-65
2023/01/21 09:03:18;;;;;;;11.10;10.33;;;0.80;99.90;;;;;;5062757;28;20206;-64
2023/01/21 09:05:44;;;;;;;12.43;11.47;;;0.80;99.90;;;;;;5056342;28;20203;-65
2023/01/21 09:08:10;;;;;;;13.70;10.50;;;0.60;99.90;;;;;;5063292;28;20178;-64
2023/01/21 09:13:38;;;;;;;12.30;9.67;;;0.40;99.90;;;;;;4990136;28;20267;-64
2023/01/21 09:16:16;;;;;;;20.03;10.77;;;0.30;99.90;;;;;;5038593;28;20197;-64
2023/01/21 09:18:42;;;;;;;9.20;8.50;;;0.20;99.90;;;;;;5051063;28;20170;-64
2023/01/21 09:21:09;;;;;;;13.43;11.83;;;0.20;99.90;;;;;;5050642;28;20186;-64
2023/01/21 09:23:36;;;;;;;21.20;11.27;;;0.20;99.90;;;;;;5050793;28;20242;-64
2023/01/21 09:26:22;;;;;;;11.33;9.10;;;0.10;99.90;;;;;;5050546;28;20178;-64
2023/01/21 09:28:53;;;;;;;13.77;10.93;;;0.10;99.90;;;;;;5051814;28;20183;-64
2023/01/21 09:31:20;;;;;;;11.70;10.60;;;0.10;99.90;;;;;;5050714;28;20187;-64
2023/01/21 09:33:48;;;;;;;12.23;11.00;;;0.00;99.90;;;;;;5050797;28;20187;-64
2023/01/21 09:36:18;;;;;;;13.93;10.27;;;-0.10;99.90;;;;;;5050815;28;20199;-64
2023/01/21 09:38:45;;;;;;;17.10;11.27;;;-0.10;99.90;;;;;;5052348;28;20181;-64
2023/01/21 09:41:16;;;;;;;13.77;11.17;;;-0.10;99.90;;;;;;5054064;28;20191;-64
2023/01/21 09:43:47;;;;;;;12.43;10.47;;;-0.10;99.90;;;;;;5065031;28;20221;-64
2023/01/21 09:46:41;;;;;;;13.03;11.70;;;-0.10;99.90;;;;;;5059048;28;20509;-64
2023/01/21 09:49:15;;;;;;;13.60;10.67;;;-0.10;99.90;;;;;;5063499;28;20247;-64
2023/01/21 09:51:51;;;;;;;10.47;9.57;;;-0.10;99.90;;;;;;5070087;28;20607;-64
2023/01/21 09:54:24;;;;;;;12.53;11.30;;;0.00;99.90;;;;;;5057193;28;20254;-64
2023/01/21 09:57:15;;;;;;;12.37;11.47;;;0.00;99.90;;;;;;5071884;28;20202;-64
2023/01/21 09:59:56;;;;;;;10.33;9.43;;;0.10;99.90;;;;;;5054905;28;20750;-64
2023/01/21 10:02:47;;;;;;;11.77;10.57;;;0.10;99.90;;;;;;5058487;28;20275;-64
2023/01/21 10:05:40;;;;;;;11.07;10.07;;;0.20;99.90;;;;;;5074141;28;20198;-64
2023/01/21 10:08:49;;;;;;;17.37;11.63;;;0.30;99.90;;;;;;5058049;28;20491;-64
2023/01/21 10:11:42;;;;;;;13.00;10.57;;;0.40;99.90;;;;;;5034669;28;20203;-64
2023/01/21 10:14:29;;;;;;;10.87;9.20;;;0.40;99.90;;;;;;5053816;28;20194;-64
2023/01/21 10:17:27;;;;;;;9.33;8.83;;;0.50;99.90;;;;;;5053927;28;20175;-64
2023/01/21 10:20:17;;;;;;;12.00;10.33;;;0.50;99.90;;;;;;5053638;28;20616;-64
2023/01/21 10:22:53;;;;;;;12.30;11.27;;;0.50;99.90;;;;;;5053672;28;20187;-64
2023/01/21 10:25:28;;;;;;;12.97;9.50;;;0.60;99.90;;;;;;5063379;28;20206;-64
2023/01/21 10:27:58;;;;;;;10.40;9.60;;;0.60;99.90;;;;;;5065217;28;20239;-64
2023/01/21 10:30:37;;;;;;;10.47;9.73;;;0.60;99.90;;;;;;5072490;28;20640;-64
2023/01/21 10:33:05;;;;;;;21.33;11.77;;;0.90;99.90;;;;;;5060910;28;20210;-64
2023/01/21 10:36:11;;;;;;;11.90;10.73;;;0.60;99.90;;;;;;5053162;28;20297;-65
2023/01/21 10:38:48;;;;;;;13.43;12.23;;;0.80;99.90;;;;;;5065749;28;20635;-65
2023/01/21 10:41:49;;;;;;;11.67;10.67;;;0.70;99.90;;;;;;5072559;28;20170;-65
2023/01/21 10:44:34;;;;;;;11.60;10.13;;;0.70;99.90;;;;;;5027829;28;20226;-64
2023/01/21 10:47:12;;;;;;;10.37;9.67;;;0.80;99.90;;;;;;5036114;28;20208;-65
2023/01/21 10:49:52;;;;;;;14.90;12.50;;;0.70;99.90;;;;;;5072545;28;20648;-64
2023/01/21 10:52:17;;;;;;;14.73;11.43;;;0.80;99.90;;;;;;5070603;28;20544;-64
2023/01/21 10:55:25;;;;;;;13.60;11.53;;;0.80;99.90;;;;;;5073065;28;20247;-65
2023/01/21 10:58:26;;;;;;;11.50;10.43;;;0.80;99.90;;;;;;5066020;28;20206;-65
2023/01/21 11:00:54;;;;;;;12.20;11.30;;;0.80;99.90;;;;;;5052902;28;20647;-65
2023/01/21 11:03:40;;;;;;;10.73;9.97;;;0.80;99.90;;;;;;5063196;28;20534;-64
2023/01/21 11:06:08;;;;;;;11.80;10.60;;;0.80;99.90;;;;;;5073087;28;20366;-65
2023/01/21 11:08:34;;;;;;;15.80;12.77;;;0.80;99.90;;;;;;5061253;28;20187;-64
2023/01/21 11:11:00;;;;;;;12.63;11.50;;;0.90;99.90;;;;;;5052515;28;20179;-65
2023/01/21 11:13:26;;;;;;;11.87;10.87;;;0.90;99.90;;;;;;5062206;28;20370;-64
2023/01/21 11:15:54;;;;;;;14.93;11.00;;;0.90;99.90;;;;;;5072407;28;20269;-64
2023/01/21 11:18:41;;;;;;;13.20;12.10;;;0.90;99.90;;;;;;5064597;28;20190;-64
2023/01/21 11:21:22;;;;;;;12.67;11.67;;;1.00;99.90;;;;;;5052354;28;20700;-65
2023/01/21 11:24:19;;;;;;;16.70;13.17;;;0.90;99.90;;;;;;5063498;28;20233;-64
2023/01/21 11:26:54;;;;;;;10.23;9.63;;;1.00;99.90;;;;;;5069616;28;20194;-65
2023/01/21 11:29:21;;;;;;;11.43;10.47;;;1.00;99.90;;;;;;5056207;28;20196;-64
2023/01/21 11:32:01;;;;;;;12.00;11.10;;;1.10;99.90;;;;;;5052284;28;20586;-65
2023/01/21 11:34:28;;;;;;;19.07;11.30;;;1.10;99.90;;;;;;5050727;28;20627;-65
2023/01/21 11:36:54;;;;;;;12.47;11.33;;;1.10;99.90;;;;;;5061921;28;20197;-64
2023/01/21 11:39:23;;;;;;;12.13;11.13;;;1.10;99.90;;;;;;5064623;28;20265;-65
2023/01/21 11:41:54;;;;;;;11.07;10.17;;;1.10;99.90;;;;;;5061361;28;20182;-65
2023/01/21 11:44:21;;;;;;;13.90;12.57;;;1.20;99.90;;;;;;5071870;28;20217;-64
2023/01/21 11:46:47;;;;;;;12.80;11.47;;;1.10;99.90;;;;;;5063071;28;20206;-64
2023/01/21 11:49:28;;;;;;;12.10;11.17;;;1.10;99.90;;;;;;5052106;28;20215;-64
2023/01/21 11:52:14;;;;;;;11.53;10.47;;;1.00;99.90;;;;;;5061004;28;20292;-64
2023/01/21 11:54:39;;;;;;;15.73;12.43;;;1.00;99.90;;;;;;5072035;28;20277;-64
2023/01/21 11:57:15;;;;;;;11.87;10.97;;;0.90;99.90;;;;;;5065036;28;20261;-64
2023/01/21 11:59:45;;;;;;;15.47;11.33;;;0.90;99.90;;;;;;5051544;28;20687;-64
2023/01/21 12:02:30;;;;;;;13.00;11.57;;;1.00;99.90;;;;;;5051345;28;20177;-65
2023/01/21 12:05:03;;;;;;;11.90;10.97;;;1.10;99.90;;;;;;5052113;28;20200;-65
2023/01/21 12:07:36;;;;;;;12.70;11.70;;;1.20;99.90;;;;;;5052079;28;20186;-65
2023/01/21 12:10:11;;;;;;;11.37;10.27;;;1.20;99.90;;;;;;5051597;28;20174;-64
2023/01/21 12:12:42;;;;;;;11.57;10.80;;;1.30;99.90;;;;;;5051425;28;20214;-65
2023/01/21 12:15:41;;;;;;;11.23;10.33;;;1.40;99.90;;;;;;5051559;28;20237;-64
2023/01/21 12:18:21;;;;;;;13.20;12.00;;;1.40;99.90;;;;;;5051851;28;20179;-65
2023/01/21 12:21:05;;;;;;;11.97;10.67;;;1.50;99.90;;;;;;5050942;28;20189;-65
2023/01/21 12:23:43;;;;;;;11.80;10.77;;;1.60;99.90;;;;;;5031580;28;20224;-64
2023/01/21 12:26:44;;;;;;;18.43;11.03;;;1.50;99.90;;;;;;5043301;28;20251;-65
2023/01/21 12:29:19;;;;;;;12.07;10.33;;;1.60;99.90;;;;;;5071305;28;20185;-65
2023/01/21 12:32:03;;;;;;;13.23;10.97;;;1.60;99.90;;;;;;5060989;28;20672;-65
2023/01/21 12:34:34;;;;;;;11.97;11.07;;;1.60;99.90;;;;;;5051519;28;20190;-64
2023/01/21 12:37:05;;;;;;;18.70;11.67;;;1.70;99.90;;;;;;5054911;28;20178;-64
2023/01/21 12:39:39;;;;;;;11.30;10.43;;;1.70;99.90;;;;;;5071215;28;20256;-65
2023/01/21 12:42:30;;;;;;;12.13;11.13;;;1.60;99.90;;;;;;5059343;28;20182;-64
2023/01/21 12:45:01;;;;;;;20.60;11.30;;;1.10;99.90;;;;;;5051103;28;20599;-65
2023/01/21 12:47:41;;;;;;;11.50;10.50;;;1.60;99.90;;;;;;5052414;28;20189;-64
2023/01/21 12:50:34;;;;;;;13.47;12.20;;;1.50;99.90;;;;;;5050839;28;20636;-64
2023/01/21 12:53:18;;;;;;;14.33;12.50;;;1.50;99.90;;;;;;5069159;28;20218;-64
2023/01/21 12:55:49;;;;;;;13.00;10.43;;;1.50;99.90;;;;;;5071133;28;20260;-64
2023/01/21 12:58:19;;;;;;;13.20;10.77;;;1.50;99.90;;;;;;5051790;28;20240;-64
2023/01/21 13:00:47;;;;;;;18.73;11.87;;;1.50;99.90;;;;;;5050059;28;20171;-64
2023/01/21 13:03:42;;;;;;;12.80;11.87;;;1.40;99.90;;;;;;5069968;28;20512;-64
2023/01/21 13:06:21;;;;;;;11.50;10.33;;;1.40;99.90;;;;;;5069862;28;20213;-64
2023/01/21 13:09:06;;;;;;;16.47;11.10;;;1.40;99.90;;;;;;5051222;28;20167;-64